Time;durP1;ratioP1;P1;durP2;ratioP2;P2;SDS_P1;SDS_P2;PMS_P1;PMS_P2;Temp;Humidity;BMP_temperature;BMP_pressure;BME280_temperature;BME280_humidity;BME280_pressure;Samples;Min_cycle;Max_cycle;Signal;HPM_P1;HPM_P2
2024/01/05 00:00:00;;;;;;;10.97;3.10;;;;;;;18.74;57.90;99213.22;4936965;28;20225;-75
2024/01/05 00:02:26;;;;;;;6.50;2.43;;;;;;;18.74;58.02;99201.78;4947413;28;20229;-75
2024/01/05 00:04:51;;;;;;;12.90;2.73;;;;;;;18.73;57.98;99194.44;4939221;28;20501;-75
2024/01/05 00:07:16;;;;;;;6.57;2.10;;;;;;;18.72;57.95;99201.38;4950496;28;20205;-75
2024/01/05 00:09:42;;;;;;;9.80;2.37;;;;;;;18.75;58.10;99197.72;4967096;28;20191;-74
2024/01/05 00:12:07;;;;;;;5.50;1.83;;;;;;;18.74;57.58;99190.34;4924240;28;20197;-76
2024/01/05 00:14:36;;;;;;;6.87;2.60;;;;;;;18.74;57.73;99184.66;4943510;28;20218;-72
2024/01/05 00:17:02;;;;;;;13.50;3.00;;;;;;;18.71;57.72;99168.28;4952898;28;20210;-72
2024/01/05 00:19:27;;;;;;;8.70;1.90;;;;;;;18.71;57.66;99162.56;4930627;28;20488;-72
2024/01/05 00:21:53;;;;;;;5.90;2.57;;;;;;;18.71;57.88;99170.34;4955201;28;20202;-72
2024/01/05 00:24:18;;;;;;;5.83;2.37;;;;;;;18.73;57.82;99177.28;4973659;28;20202;-72
2024/01/05 00:26:43;;;;;;;8.00;2.20;;;;;;;18.71;58.05;99161.78;4924306;28;20203;-72
2024/01/05 00:29:09;;;;;;;7.30;2.20;;;;;;;18.72;57.64;99169.91;4937889;28;20198;-72
2024/01/05 00:31:34;;;;;;;8.63;2.33;;;;;;;18.70;58.29;99160.94;4961974;28;20199;-72
2024/01/05 00:34:00;;;;;;;5.20;2.10;;;;;;;18.69;57.89;99156.47;4932779;28;20209;-72
2024/01/05 00:36:26;;;;;;;6.67;2.53;;;;;;;18.70;57.96;99155.22;4978016;28;20723;-72
2024/01/05 00:38:51;;;;;;;8.17;2.30;;;;;;;18.65;58.40;99155.66;4957514;28;20469;-72
2024/01/05 00:41:17;;;;;;;6.70;2.10;;;;;;;18.66;58.32;99148.69;4953755;28;20198;-72
2024/01/05 00:43:42;;;;;;;8.40;2.20;;;;;;;18.67;58.09;99138.88;4953999;28;20583;-73
2024/01/05 00:46:08;;;;;;;7.00;2.40;;;;;;;18.68;57.81;99145.44;4971845;28;20258;-73
2024/01/05 00:48:33;;;;;;;5.90;2.20;;;;;;;18.69;57.97;99153.59;4971193;28;20205;-72
2024/01/05 00:50:59;;;;;;;6.97;2.03;;;;;;;18.67;58.29;99158.91;4983348;28;20207;-72
2024/01/05 00:53:24;;;;;;;8.00;2.47;;;;;;;18.70;58.07;99163.81;4955667;28;20210;-72
2024/01/05 00:55:49;;;;;;;7.27;2.83;;;;;;;18.66;57.91;99160.13;4955434;28;20214;-72
2024/01/05 00:58:15;;;;;;;9.70;2.53;;;;;;;18.68;58.32;99156.88;4950342;28;20229;-72
2024/01/05 01:00:40;;;;;;;6.97;2.20;;;;;;;18.67;57.85;99149.53;4922623;28;20305;-73
2024/01/05 01:03:06;;;;;;;9.20;2.17;;;;;;;18.65;58.53;99151.97;4948700;28;20675;-72
2024/01/05 01:05:31;;;;;;;6.97;1.80;;;;;;;18.65;58.11;99149.09;4936243;28;20721;-72
2024/01/05 01:07:57;;;;;;;6.00;2.27;;;;;;;18.67;58.00;99150.31;4971318;28;20221;-72
2024/01/05 01:10:22;;;;;;;5.83;1.97;;;;;;;18.63;58.15;99146.69;4936500;28;20286;-73
2024/01/05 01:12:48;;;;;;;5.50;2.03;;;;;;;18.64;58.12;99145.44;4938542;28;20206;-72
2024/01/05 01:15:13;;;;;;;5.67;2.57;;;;;;;18.63;58.64;99132.38;4935659;28;20230;-74
2024/01/05 01:17:38;;;;;;;4.77;1.90;;;;;;;18.62;58.05;99142.16;4929433;29;20214;-72
2024/01/05 01:20:05;;;;;;;7.20;2.10;;;;;;;18.63;58.61;99143.00;4938539;28;20214;-72
2024/01/05 01:22:30;;;;;;;5.53;1.87;;;;;;;18.60;58.50;99138.91;4955043;28;20587;-72
2024/01/05 01:24:56;;;;;;;8.93;2.03;;;;;;;18.60;58.58;99133.19;4951806;28;20454;-73
2024/01/05 01:27:21;;;;;;;5.40;2.20;;;;;;;18.63;58.03;99126.66;4952073;28;20207;-72
2024/01/05 01:29:47;;;;;;;3.83;1.50;;;;;;;18.62;58.33;99124.22;4935861;29;20258;-73
2024/01/05 01:32:13;;;;;;;5.97;2.10;;;;;;;18.59;58.69;99133.59;4945306;28;20214;-72
2024/01/05 01:34:39;;;;;;;5.87;1.80;;;;;;;18.61;58.31;99122.59;4955766;28;20484;-72
2024/01/05 01:37:04;;;;;;;6.03;2.13;;;;;;;18.57;58.64;99122.56;4955224;28;20209;-72
2024/01/05 01:39:30;;;;;;;5.50;1.77;;;;;;;18.59;58.58;99117.28;4971366;28;20221;-73
2024/01/05 01:41:56;;;;;;;5.33;2.00;;;;;;;18.57;58.39;99116.84;4963102;28;20218;-72
2024/01/05 01:44:22;;;;;;;4.23;1.93;;;;;;;18.59;58.42;99117.28;4920290;29;20459;-72
2024/01/05 01:46:47;;;;;;;11.03;1.90;;;;;;;18.59;58.42;99107.88;4921728;28;20221;-72
2024/01/05 01:49:13;;;;;;;8.40;2.23;;;;;;;18.55;58.40;99102.16;4938219;28;20235;-72
2024/01/05 01:51:39;;;;;;;9.23;2.33;;;;;;;18.60;58.10;99112.34;4951259;28;20345;-72
2024/01/05 01:54:06;;;;;;;5.70;2.20;;;;;;;18.57;58.11;99113.19;4943133;28;20291;-72
2024/01/05 01:56:32;;;;;;;5.60;1.63;;;;;;;18.58;58.32;99118.50;4946585;28;20466;-72
2024/01/05 01:58:57;;;;;;;6.40;1.77;;;;;;;18.56;58.30;99115.22;4934856;29;20215;-72
2024/01/05 02:01:23;;;;;;;3.90;1.63;;;;;;;18.56;58.53;99112.34;4919409;28;20213;-73
2024/01/05 02:03:48;;;;;;;6.60;1.70;;;;;;;18.55;58.64;99112.75;4943163;28;20249;-72
2024/01/05 02:06:14;;;;;;;4.47;1.60;;;;;;;18.55;58.32;99105.03;4937351;29;20222;-72
2024/01/05 02:08:39;;;;;;;5.53;2.03;;;;;;;18.54;58.38;99106.25;4935377;29;20202;-72
2024/01/05 02:11:05;;;;;;;5.03;1.70;;;;;;;18.52;58.33;99102.16;4936495;28;20207;-72
2024/01/05 02:13:31;;;;;;;3.37;1.57;;;;;;;18.55;58.61;99107.88;4918414;29;20210;-72
2024/01/05 02:15:57;;;;;;;5.83;1.80;;;;;;;18.53;58.84;99101.75;4953322;28;20212;-72
2024/01/05 02:18:22;;;;;;;4.53;1.57;;;;;;;18.52;58.40;99102.97;4952548;28;20465;-72
2024/01/05 02:20:48;;;;;;;5.13;1.97;;;;;;;18.52;58.86;99091.53;4937710;28;20218;-73
2024/01/05 02:23:26;;;;;;;10.03;2.30;;;;;;;18.51;58.71;99084.19;4959969;28;20202;-73
2024/01/05 02:25:53;;;;;;;3.50;1.53;;;;;;;18.51;58.55;99087.06;4959547;28;20782;-73
2024/01/05 02:28:19;;;;;;;4.80;2.23;;;;;;;18.52;58.20;99087.88;4926065;28;20859;-72
2024/01/05 02:30:45;;;;;;;5.73;2.23;;;;;;;18.52;58.66;99085.81;4939595;28;20441;-72
2024/01/05 02:33:10;;;;;;;4.60;2.13;;;;;;;18.49;58.36;99083.81;4932373;28;21238;-72
2024/01/05 02:35:35;;;;;;;6.53;1.90;;;;;;;18.52;58.49;99085.81;4941463;28;20225;-76
2024/01/05 02:38:01;;;;;;;5.27;2.37;;;;;;;18.51;58.93;99071.97;4966130;28;20210;-73
2024/01/05 02:40:26;;;;;;;4.73;1.67;;;;;;;18.50;58.77;99071.13;4968534;28;20284;-75
2024/01/05 02:42:52;;;;;;;5.70;2.00;;;;;;;18.49;58.98;99065.81;4965819;28;20301;-75
2024/01/05 02:45:20;;;;;;;4.80;1.60;;;;;;;18.47;59.02;99066.22;4936283;28;20232;-74
2024/01/05 02:47:49;;;;;;;3.40;1.67;;;;;;;18.50;58.33;99067.44;4937134;28;20935;-74
2024/01/05 02:50:15;;;;;;;3.97;1.50;;;;;;;18.47;58.93;99062.56;4916479;29;20480;-75
2024/01/05 02:52:40;;;;;;;2.53;1.30;;;;;;;18.46;58.80;99053.16;4901085;29;20458;-75
2024/01/05 02:55:06;;;;;;;4.13;2.00;;;;;;;18.47;59.18;99054.00;4898534;29;20460;-75
2024/01/05 02:57:31;;;;;;;3.70;1.70;;;;;;;18.45;58.57;99053.56;4918572;29;20218;-73
2024/01/05 02:59:57;;;;;;;3.70;1.90;;;;;;;18.46;58.57;99038.88;4897886;29;20212;-76
2024/01/05 03:02:22;;;;;;;4.27;1.53;;;;;;;18.46;59.08;99046.66;4924840;28;20203;-74
2024/01/05 03:04:49;;;;;;;6.77;2.00;;;;;;;18.48;58.36;99035.63;4884535;29;20208;-75
2024/01/05 03:07:14;;;;;;;5.80;1.60;;;;;;;18.47;58.85;99048.28;4898655;29;20996;-76
2024/01/05 03:09:40;;;;;;;3.60;1.73;;;;;;;18.45;58.52;99033.56;4896720;29;20451;-75
2024/01/05 03:12:05;;;;;;;3.30;1.20;;;;;;;18.45;58.54;99028.69;4916769;29;20303;-75
2024/01/05 03:14:31;;;;;;;4.57;1.90;;;;;;;18.45;58.77;99027.84;4909088;29;20291;-74
2024/01/05 03:16:56;;;;;;;6.23;1.90;;;;;;;18.45;58.82;99033.56;4901886;29;20211;-76
2024/01/05 03:19:22;;;;;;;6.77;1.60;;;;;;;18.44;58.34;99027.06;4887778;29;20212;-76
2024/01/05 03:21:47;;;;;;;5.77;2.00;;;;;;;18.43;58.57;99025.44;4898144;29;20227;-73
2024/01/05 03:24:13;;;;;;;1.93;1.17;;;;;;;18.42;58.38;99020.91;4882101;29;20200;-73
2024/01/05 03:26:38;;;;;;;4.23;1.77;;;;;;;18.44;58.33;99021.34;4881952;29;20212;-75
2024/01/05 03:29:03;;;;;;;5.10;2.00;;;;;;;18.43;58.88;99013.19;4900783;29;20210;-77
2024/01/05 03:31:29;;;;;;;4.43;2.00;;;;;;;18.42;58.65;99018.06;4904620;29;20207;-75
2024/01/05 03:33:54;;;;;;;3.13;1.47;;;;;;;18.41;58.62;99009.94;4910872;29;20200;-75
2024/01/05 03:36:20;;;;;;;5.40;1.70;;;;;;;18.43;58.59;99011.16;4897591;29;20216;-76
2024/01/05 03:38:45;;;;;;;5.00;1.80;;;;;;;18.41;58.93;99002.16;4898289;29;20337;-75
2024/01/05 03:41:13;;;;;;;5.83;1.93;;;;;;;18.41;58.87;99005.00;4898929;29;20200;-76
2024/01/05 03:43:39;;;;;;;4.73;1.60;;;;;;;18.41;58.92;98998.50;4899710;29;20296;-69
2024/01/05 03:46:06;;;;;;;3.20;1.97;;;;;;;18.41;58.33;98999.28;4897196;29;20530;-75
2024/01/05 03:48:31;;;;;;;4.70;1.33;;;;;;;18.40;58.69;98991.97;4901927;28;20210;-73
2024/01/05 03:50:57;;;;;;;4.73;1.53;;;;;;;18.41;58.96;98995.66;4919370;28;20976;-75
2024/01/05 03:53:22;;;;;;;3.27;1.40;;;;;;;18.40;58.93;98996.84;4931118;28;20586;-74
2024/01/05 03:55:48;;;;;;;3.83;1.37;;;;;;;18.40;58.64;98994.81;4944808;28;20198;-76
2024/01/05 03:58:14;;;;;;;4.10;1.80;;;;;;;18.40;58.75;98997.66;4934855;28;20213;-75
2024/01/05 04:00:40;;;;;;;2.63;1.20;;;;;;;18.39;58.69;98990.34;4937103;28;20226;-75
2024/01/05 04:03:05;;;;;;;6.73;1.77;;;;;;;18.39;58.69;98990.34;4936377;28;20454;-76
2024/01/05 04:05:31;;;;;;;5.20;1.70;;;;;;;18.39;58.56;98987.47;4902010;29;20263;-75
2024/01/05 04:07:56;;;;;;;3.83;1.57;;;;;;;18.39;58.75;98978.06;4913889;29;20211;-75
2024/01/05 04:10:22;;;;;;;5.23;1.63;;;;;;;18.37;58.20;98981.34;4931989;28;20640;-74
2024/01/05 04:12:47;;;;;;;3.37;1.33;;;;;;;18.37;58.79;98983.41;4952182;28;20206;-73
2024/01/05 04:15:12;;;;;;;4.50;1.80;;;;;;;18.36;58.75;98979.72;4938232;28;20203;-74
2024/01/05 04:17:38;;;;;;;3.13;1.40;;;;;;;18.39;58.85;98992.34;4918679;28;20211;-75
2024/01/05 04:20:04;;;;;;;2.93;1.13;;;;;;;18.38;58.35;98987.88;4951318;28;20223;-74
2024/01/05 04:22:31;;;;;;;2.73;1.27;;;;;;;18.37;58.65;98992.78;4913783;29;20253;-74
2024/01/05 04:25:00;;;;;;;4.60;1.53;;;;;;;18.36;58.47;98996.06;4944839;28;20568;-75
2024/01/05 04:27:26;;;;;;;3.30;1.43;;;;;;;18.36;59.00;98996.84;4931185;29;20521;-74
2024/01/05 04:29:51;;;;;;;4.20;1.70;;;;;;;18.37;58.65;99003.41;4887449;28;20458;-76
2024/01/05 04:32:17;;;;;;;4.97;1.70;;;;;;;18.35;58.63;98998.09;4918615;29;20218;-75
2024/01/05 04:34:42;;;;;;;3.67;1.10;;;;;;;18.36;58.89;98990.34;4915687;29;20208;-75
2024/01/05 04:37:08;;;;;;;4.97;1.53;;;;;;;18.37;58.57;98995.63;4897180;29;20203;-75
2024/01/05 04:39:34;;;;;;;2.87;1.50;;;;;;;18.39;58.77;98995.22;4915945;29;20215;-75
2024/01/05 04:41:59;;;;;;;4.10;1.80;;;;;;;18.38;58.82;98988.72;4915914;29;20509;-75
2024/01/05 04:44:24;;;;;;;4.33;1.23;;;;;;;18.37;58.47;98978.47;4944303;28;20213;-75
2024/01/05 04:46:50;;;;;;;4.23;1.73;;;;;;;18.36;58.48;98988.28;4930596;29;20198;-75
2024/01/05 04:49:15;;;;;;;3.77;1.33;;;;;;;18.36;58.41;98985.44;4928826;29;20227;-75
2024/01/05 04:51:41;;;;;;;4.17;1.80;;;;;;;18.36;58.60;98978.91;4931361;29;20207;-75
2024/01/05 04:54:06;;;;;;;3.70;1.43;;;;;;;18.35;58.46;98980.94;4931752;29;20199;-68
2024/01/05 04:56:32;;;;;;;5.20;1.67;;;;;;;18.35;58.70;98972.38;4929909;29;20215;-70
2024/01/05 04:58:57;;;;;;;4.00;1.70;;;;;;;18.35;58.83;98980.94;4918047;29;20200;-68
2024/01/05 05:01:22;;;;;;;3.70;1.43;;;;;;;18.36;58.48;98971.16;4935480;28;20217;-68
2024/01/05 05:03:48;;;;;;;4.77;1.70;;;;;;;18.36;58.79;98985.44;4917091;29;20199;-69
2024/01/05 05:06:13;;;;;;;3.37;1.70;;;;;;;18.36;58.59;98985.44;4917690;29;20211;-68
2024/01/05 05:08:39;;;;;;;4.37;1.90;;;;;;;18.40;58.07;98973.97;4935960;28;20966;-68
2024/01/05 05:11:04;;;;;;;5.47;1.70;;;;;;;18.36;58.58;98982.56;4951470;28;20651;-68
2024/01/05 05:13:30;;;;;;;3.90;1.47;;;;;;;18.35;58.80;98983.81;4929368;28;20207;-69
2024/01/05 05:15:55;;;;;;;3.13;1.47;;;;;;;18.36;58.76;98985.44;4932370;29;20211;-71
2024/01/05 05:18:20;;;;;;;3.80;1.30;;;;;;;18.35;58.63;98991.53;4933087;29;20203;-71
2024/01/05 05:20:46;;;;;;;3.63;1.50;;;;;;;18.35;58.38;98983.81;4932753;28;20267;-69
2024/01/05 05:23:11;;;;;;;3.50;1.50;;;;;;;18.36;58.67;98981.78;4931956;29;20617;-69
2024/01/05 05:25:37;;;;;;;2.87;1.10;;;;;;;18.35;58.78;98980.94;4949490;28;20664;-68
2024/01/05 05:28:02;;;;;;;2.77;1.20;;;;;;;18.34;58.51;98978.50;4915321;29;20210;-70
2024/01/05 05:30:28;;;;;;;2.87;1.10;;;;;;;18.36;58.55;98981.78;4932859;29;20207;-70
2024/01/05 05:32:53;;;;;;;2.30;1.10;;;;;;;18.35;58.60;98980.13;4931966;28;20243;-70
2024/01/05 05:35:18;;;;;;;5.10;1.80;;;;;;;18.36;58.54;98991.16;4931991;29;20227;-69
2024/01/05 05:37:44;;;;;;;4.80;1.50;;;;;;;18.36;58.66;98988.28;4896540;29;20196;-71
2024/01/05 05:40:11;;;;;;;2.53;1.33;;;;;;;18.34;58.68;98993.59;4918095;29;20203;-70
2024/01/05 05:42:36;;;;;;;3.50;1.57;;;;;;;18.38;58.55;98988.72;4943608;28;20211;-70
2024/01/05 05:45:02;;;;;;;2.43;1.17;;;;;;;18.36;58.74;98990.34;4931911;29;21438;-71
2024/01/05 05:47:27;;;;;;;4.60;1.60;;;;;;;18.37;58.82;98997.69;4929230;29;20199;-70
2024/01/05 05:49:53;;;;;;;2.97;1.73;;;;;;;18.35;58.48;99000.13;4903365;29;20579;-69
2024/01/05 05:52:18;;;;;;;3.10;1.30;;;;;;;18.35;58.92;98995.22;4915763;29;20754;-70
2024/01/05 05:54:44;;;;;;;3.20;1.40;;;;;;;18.36;58.54;98984.63;4888454;29;20256;-69
2024/01/05 05:57:09;;;;;;;3.97;1.70;;;;;;;18.35;58.83;99000.13;4897525;29;20196;-70
2024/01/05 05:59:35;;;;;;;2.80;1.30;;;;;;;18.36;58.96;98994.00;4928470;29;20328;-70
2024/01/05 06:02:00;;;;;;;5.83;1.50;;;;;;;18.34;58.91;98993.59;4895479;29;20215;-68
2024/01/05 06:04:26;;;;;;;3.83;1.50;;;;;;;18.36;58.87;99002.56;4879799;29;20204;-72
2024/01/05 06:06:51;;;;;;;2.63;1.30;;;;;;;18.35;59.15;98991.53;4902662;29;20419;-72
2024/01/05 06:09:16;;;;;;;3.27;1.40;;;;;;;18.34;59.13;98999.31;4905563;29;20656;-72
2024/01/05 06:11:42;;;;;;;2.57;1.33;;;;;;;18.38;58.32;99000.13;4919128;29;20674;-72
2024/01/05 06:14:07;;;;;;;4.67;1.60;;;;;;;18.34;58.69;98999.31;4913323;29;21006;-72
2024/01/05 06:16:33;;;;;;;3.60;1.30;;;;;;;18.38;58.34;98990.75;4874539;29;20212;-72
2024/01/05 06:18:58;;;;;;;3.07;1.50;;;;;;;18.36;58.53;98988.28;4928277;29;20203;-72
2024/01/05 06:21:25;;;;;;;3.07;1.43;;;;;;;18.36;58.29;98996.84;4903640;29;20234;-72
2024/01/05 06:23:50;;;;;;;3.10;1.43;;;;;;;18.35;58.75;99000.94;4900836;29;20286;-71
2024/01/05 06:26:16;;;;;;;2.87;1.30;;;;;;;18.38;59.02;99003.00;4910734;29;20459;-72
2024/01/05 06:28:41;;;;;;;3.23;1.17;;;;;;;18.36;58.63;99013.19;4914623;29;20764;-72
2024/01/05 06:31:07;;;;;;;4.23;1.47;;;;;;;18.37;58.81;99009.91;4912668;29;20635;-72
2024/01/05 06:33:32;;;;;;;4.83;1.30;;;;;;;18.37;58.68;99023.41;4880634;29;20203;-72
2024/01/05 06:35:57;;;;;;;2.00;1.03;;;;;;;18.35;58.95;99015.22;4942482;29;20217;-72
2024/01/05 06:38:23;;;;;;;2.17;1.10;;;;;;;18.39;58.56;99033.19;4917179;29;20214;-72
2024/01/05 06:40:48;;;;;;;3.23;1.30;;;;;;;18.38;58.86;99031.56;4911113;29;20216;-72
2024/01/05 06:43:14;;;;;;;3.70;1.30;;;;;;;18.37;58.56;99034.81;4897974;29;20207;-72
2024/01/05 06:45:39;;;;;;;2.70;1.23;;;;;;;18.35;58.57;99032.38;4926513;29;20211;-72
2024/01/05 06:48:05;;;;;;;2.97;1.13;;;;;;;18.36;58.69;99025.44;4899435;29;20208;-72
2024/01/05 06:50:31;;;;;;;3.17;1.07;;;;;;;18.36;58.93;99025.44;4913514;29;21039;-72
2024/01/05 06:52:56;;;;;;;3.37;1.50;;;;;;;18.34;58.61;99022.19;4899679;29;20452;-72
2024/01/05 06:55:22;;;;;;;7.00;1.67;;;;;;;18.36;58.84;99031.16;4887705;29;20685;-72
2024/01/05 06:57:48;;;;;;;1.87;1.00;;;;;;;18.38;59.12;99028.72;4912640;29;20280;-72
2024/01/05 07:00:13;;;;;;;2.50;1.20;;;;;;;18.38;58.97;99036.44;4913017;29;20223;-72
2024/01/05 07:02:40;;;;;;;2.83;1.30;;;;;;;18.36;58.83;99034.00;4921888;29;21369;-72
2024/01/05 07:05:06;;;;;;;2.43;1.27;;;;;;;18.37;58.99;99029.13;4929663;29;20214;-72
2024/01/05 07:07:31;;;;;;;3.03;1.40;;;;;;;18.39;58.76;99040.94;4931129;29;20459;-72
2024/01/05 07:09:57;;;;;;;3.10;1.30;;;;;;;18.37;58.67;99034.81;4909752;29;20195;-72
2024/01/05 07:12:23;;;;;;;3.87;1.17;;;;;;;18.40;58.58;99034.00;4908137;29;20220;-72
2024/01/05 07:14:48;;;;;;;3.67;1.30;;;;;;;18.37;59.22;99032.78;4896511;29;20207;-72
2024/01/05 07:17:14;;;;;;;2.00;1.10;;;;;;;18.39;58.67;99035.22;4914803;29;20466;-72
2024/01/05 07:19:39;;;;;;;4.33;1.50;;;;;;;18.39;58.66;99030.34;4901971;29;20243;-72
2024/01/05 07:22:05;;;;;;;3.17;1.30;;;;;;;18.40;58.44;99014.81;4915318;29;20244;-72
2024/01/05 07:24:30;;;;;;;2.43;1.50;;;;;;;18.38;58.70;99011.56;4914800;29;20200;-72
2024/01/05 07:26:56;;;;;;;2.83;1.40;;;;;;;18.41;58.57;99007.88;4927375;29;20676;-72
2024/01/05 07:29:21;;;;;;;2.90;1.27;;;;;;;18.43;58.34;99007.47;4925957;29;20200;-72
2024/01/05 07:31:47;;;;;;;3.03;1.30;;;;;;;18.40;58.52;98997.66;4925480;29;20204;-72
2024/01/05 07:34:12;;;;;;;3.30;1.37;;;;;;;18.37;59.14;98998.47;4885225;29;20212;-72
2024/01/05 07:36:44;;;;;;;2.13;1.27;;;;;;;18.40;58.55;99002.56;4911799;29;20679;-73
2024/01/05 07:39:11;;;;;;;2.90;1.20;;;;;;;18.41;58.31;98998.50;4932344;29;20211;-73
2024/01/05 07:41:36;;;;;;;7.93;3.13;;;;;;;18.11;57.57;98987.47;4918096;29;20495;-75
2024/01/05 07:44:02;;;;;;;13.03;4.37;;;;;;;18.10;55.34;98988.72;4898732;29;20456;-77
2024/01/05 07:46:27;;;;;;;9.53;4.30;;;;;;;18.07;55.43;99000.94;4884848;29;20215;-76
2024/01/05 07:48:53;;;;;;;16.50;5.43;;;;;;;18.08;53.52;98996.06;4894796;29;20258;-75
2024/01/05 07:51:21;;;;;;;17.53;4.27;;;;;;;18.36;53.00;99010.34;4902514;29;20207;-76
2024/01/05 07:53:50;;;;;;;15.07;4.80;;;;;;;18.61;53.15;98996.81;4898273;29;20754;-75
2024/01/05 07:56:17;;;;;;;9.50;4.07;;;;;;;18.64;53.32;98999.66;4929830;29;21149;-76
2024/01/05 07:58:45;;;;;;;6.97;4.00;;;;;;;18.72;53.01;98992.66;4908148;29;21394;-75
2024/01/05 08:01:17;;;;;;;11.00;3.97;;;;;;;18.78;53.77;99004.50;4896871;29;20495;-75
2024/01/05 08:03:44;;;;;;;7.33;3.63;;;;;;;18.81;53.48;99000.81;4898468;29;20475;-75
2024/01/05 08:06:16;;;;;;;9.67;3.60;;;;;;;18.83;54.38;99004.06;4918638;29;20463;-75
2024/01/05 08:08:45;;;;;;;8.33;3.83;;;;;;;18.82;54.36;99016.75;4919783;29;20454;-75
2024/01/05 08:11:11;;;;;;;9.03;3.50;;;;;;;18.82;55.42;99014.69;4886211;29;20941;-76
2024/01/05 08:13:36;;;;;;;13.87;4.57;;;;;;;18.81;54.91;99004.47;4901326;29;20471;-75
2024/01/05 08:16:02;;;;;;;11.43;3.50;;;;;;;18.87;55.00;99004.88;4920714;29;20281;-75
2024/01/05 08:18:27;;;;;;;9.37;3.40;;;;;;;19.08;55.49;99001.94;4922298;29;20211;-76
2024/01/05 08:20:53;;;;;;;10.23;4.10;;;;;;;19.31;56.03;99002.25;4924423;29;20219;-75
2024/01/05 08:23:18;;;;;;;9.43;3.17;;;;;;;19.27;55.92;99007.97;4938985;29;20203;-75
2024/01/05 08:25:44;;;;;;;9.97;3.80;;;;;;;19.11;56.36;99001.09;4909184;29;20201;-77
2024/01/05 08:28:09;;;;;;;11.20;3.93;;;;;;;19.02;57.38;99004.38;4900355;29;20215;-77
2024/01/05 08:30:34;;;;;;;7.03;4.10;;;;;;;18.99;57.25;99004.41;4897033;29;20238;-78
2024/01/05 08:33:00;;;;;;;7.63;3.50;;;;;;;19.02;57.42;99000.72;4910248;29;20208;-79
2024/01/05 08:35:26;;;;;;;12.10;3.27;;;;;;;18.97;57.16;99004.81;4923153;29;20210;-78
2024/01/05 08:37:52;;;;;;;8.33;3.50;;;;;;;18.84;55.34;99005.69;4913696;29;20287;-78
2024/01/05 08:40:17;;;;;;;11.30;3.63;;;;;;;18.79;55.08;99015.53;4893260;29;20836;-80
2024/01/05 08:42:43;;;;;;;11.30;3.47;;;;;;;18.78;54.67;99008.19;4907498;29;20255;-79
2024/01/05 08:45:09;;;;;;;10.77;4.00;;;;;;;18.76;55.09;99010.63;4896145;29;20211;-80
2024/01/05 08:47:36;;;;;;;16.03;3.93;;;;;;;18.70;54.18;99012.28;4895843;29;20287;-80
2024/01/05 08:50:02;;;;;;;15.53;3.90;;;;;;;18.67;54.20;99009.44;4878764;29;20228;-80
2024/01/05 08:52:27;;;;;;;7.37;3.50;;;;;;;18.63;54.01;99003.75;4893379;29;21170;-80
2024/01/05 08:54:53;;;;;;;14.27;4.30;;;;;;;18.64;54.31;98998.81;4920822;29;20213;-78
2024/01/05 08:57:19;;;;;;;14.60;4.87;;;;;;;18.60;53.85;99003.72;4909012;29;20215;-77
2024/01/05 08:59:44;;;;;;;22.30;4.80;;;;;;;18.63;53.70;99002.91;4916624;29;20227;-78
2024/01/05 09:02:10;;;;;;;17.20;4.40;;;;;;;18.63;53.71;99003.75;4885858;29;20245;-74
2024/01/05 09:04:35;;;;;;;10.80;3.60;;;;;;;18.73;53.82;99011.47;4892264;29;20207;-76
2024/01/05 09:07:00;;;;;;;20.20;4.17;;;;;;;18.77;54.15;99008.59;4913299;29;20226;-79
2024/01/05 09:09:26;;;;;;;13.30;4.67;;;;;;;18.77;54.08;99008.59;4884551;29;20208;-77
2024/01/05 09:11:51;;;;;;;16.23;4.60;;;;;;;18.71;55.93;99016.78;4907545;29;20203;-78
2024/01/05 09:14:17;;;;;;;15.90;4.37;;;;;;;18.66;55.44;99014.34;4913031;29;20195;-75
2024/01/05 09:16:42;;;;;;;21.90;4.67;;;;;;;18.62;56.23;99038.44;4927968;29;20211;-75
2024/01/05 09:19:08;;;;;;;16.40;4.43;;;;;;;18.59;56.29;99033.53;4891283;29;20201;-76
2024/01/05 09:21:33;;;;;;;22.47;4.80;;;;;;;18.59;56.65;99040.09;4893908;29;20200;-75
2024/01/05 09:23:58;;;;;;;22.97;4.10;;;;;;;18.57;56.58;99042.53;4894252;29;20272;-76
2024/01/05 09:26:24;;;;;;;17.70;4.03;;;;;;;18.58;56.41;99044.19;4909008;29;20211;-76
2024/01/05 09:28:49;;;;;;;15.77;5.30;;;;;;;18.59;56.35;99051.53;4909049;29;20239;-75
2024/01/05 09:31:15;;;;;;;16.40;4.90;;;;;;;18.58;56.47;99044.19;4897813;29;20196;-75
2024/01/05 09:33:40;;;;;;;15.90;3.80;;;;;;;18.59;56.98;99051.53;4893992;29;20223;-73
2024/01/05 09:36:06;;;;;;;16.40;4.67;;;;;;;18.63;56.32;99063.78;4893282;29;20204;-76
2024/01/05 09:38:31;;;;;;;15.17;4.60;;;;;;;18.59;56.68;99062.97;4877864;29;20271;-76
2024/01/05 09:40:57;;;;;;;11.97;4.10;;;;;;;18.60;56.88;99066.63;4895490;29;20276;-75
2024/01/05 09:43:23;;;;;;;15.60;3.60;;;;;;;18.59;57.31;99062.97;4891504;29;20207;-74
2024/01/05 09:45:50;;;;;;;15.50;3.93;;;;;;;18.59;56.81;99074.41;4880126;29;20208;-75
2024/01/05 09:48:18;;;;;;;15.77;4.50;;;;;;;18.61;57.25;99077.66;4911473;29;21270;-75
2024/01/05 09:50:54;;;;;;;20.30;4.53;;;;;;;18.63;56.68;99071.53;4924414;28;20475;-75
2024/01/05 09:53:20;;;;;;;13.53;3.60;;;;;;;18.58;57.19;99075.63;4896276;29;20782;-74
2024/01/05 09:55:50;;;;;;;12.63;3.83;;;;;;;18.56;57.43;99080.91;4903861;29;20475;-75
2024/01/05 09:58:15;;;;;;;13.87;3.73;;;;;;;18.60;56.77;99078.88;4931856;28;20278;-75
2024/01/05 10:00:44;;;;;;;10.83;3.60;;;;;;;18.58;57.60;99078.50;4902281;29;20470;-74
2024/01/05 10:03:09;;;;;;;14.20;4.70;;;;;;;18.60;57.15;99075.19;4934996;28;20198;-74
2024/01/05 10:05:35;;;;;;;22.50;4.10;;;;;;;18.60;57.25;99075.19;4942322;29;20997;-75
2024/01/05 10:08:01;;;;;;;14.50;4.43;;;;;;;18.58;57.10;99069.91;4913079;29;20943;-76
2024/01/05 10:10:47;;;;;;;16.70;4.50;;;;;;;18.59;57.21;99074.41;4926299;29;20191;-76
2024/01/05 10:13:13;;;;;;;11.23;3.63;;;;;;;18.61;57.45;99066.22;4945876;28;20458;-75
2024/01/05 10:15:55;;;;;;;12.03;3.50;;;;;;;18.60;57.53;99070.31;4915564;28;20462;-76
2024/01/05 10:18:21;;;;;;;19.70;4.50;;;;;;;18.61;57.52;99063.34;4913795;29;20462;-74
2024/01/05 10:20:46;;;;;;;12.97;3.33;;;;;;;18.60;57.73;99073.16;4912015;29;20466;-76
2024/01/05 10:23:13;;;;;;;11.90;3.80;;;;;;;18.59;57.64;99068.69;4895629;29;20207;-76
2024/01/05 10:25:39;;;;;;;11.17;3.50;;;;;;;18.62;57.42;99069.91;4905539;28;20207;-75
2024/01/05 10:28:18;;;;;;;11.87;3.03;;;;;;;18.61;57.30;99059.69;4917229;29;20454;-75
2024/01/05 10:30:44;;;;;;;10.43;3.30;;;;;;;18.60;57.67;99056.00;4944170;28;20281;-73
2024/01/05 10:33:09;;;;;;;21.53;4.40;;;;;;;18.59;57.65;99059.28;4919230;28;20457;-76
2024/01/05 10:35:35;;;;;;;12.23;4.23;;;;;;;18.59;57.89;99051.53;4928656;29;20199;-75
2024/01/05 10:38:16;;;;;;;14.20;3.87;;;;;;;18.65;57.44;99047.00;4929753;29;20255;-75
2024/01/05 10:40:41;;;;;;;15.17;3.60;;;;;;;18.61;57.85;99048.25;4938244;28;20224;-75
2024/01/05 10:43:11;;;;;;;14.13;3.43;;;;;;;18.62;57.88;99044.97;4921295;29;20462;-75
2024/01/05 10:45:37;;;;;;;12.87;3.37;;;;;;;18.60;57.30;99050.28;4910900;29;20207;-75
2024/01/05 10:48:07;;;;;;;12.30;3.83;;;;;;;18.59;57.99;99048.66;4894800;29;20450;-75
2024/01/05 10:50:34;;;;;;;10.93;3.60;;;;;;;18.60;57.58;99041.72;4891801;29;20622;-76
2024/01/05 10:53:04;;;;;;;15.27;3.70;;;;;;;18.62;57.55;99049.88;4892232;29;20449;-75
2024/01/05 10:55:31;;;;;;;12.57;3.97;;;;;;;18.61;57.45;99040.47;4905954;29;20455;-75
2024/01/05 10:57:57;;;;;;;16.30;4.97;;;;;;;18.58;57.70;99034.78;4911069;29;20462;-75
2024/01/05 11:00:24;;;;;;;12.13;3.20;;;;;;;18.60;57.79;99043.75;4888973;29;20472;-75
2024/01/05 11:02:50;;;;;;;13.60;3.87;;;;;;;18.59;57.94;99028.66;4880135;29;20331;-75
2024/01/05 11:05:16;;;;;;;11.20;3.10;;;;;;;18.62;57.92;99027.03;4913841;29;20511;-75
2024/01/05 11:07:42;;;;;;;11.80;4.03;;;;;;;18.62;58.13;99038.44;4912909;29;20731;-76
2024/01/05 11:10:19;;;;;;;8.93;3.67;;;;;;;18.63;57.66;99034.38;4930898;29;20286;-76
2024/01/05 11:13:27;;;;;;;12.50;3.33;;;;;;;18.62;57.83;99027.81;4927463;29;20210;-75
2024/01/05 11:16:21;;;;;;;12.30;3.43;;;;;;;18.63;57.76;99029.47;4915228;29;20537;-75
2024/01/05 11:18:49;;;;;;;11.13;3.20;;;;;;;18.61;58.09;99023.34;4917317;29;20930;-75
2024/01/05 11:21:17;;;;;;;9.47;3.50;;;;;;;18.64;57.91;99025.38;4914437;29;20604;-76
2024/01/05 11:23:43;;;;;;;10.93;3.30;;;;;;;18.63;57.92;99020.91;4881693;29;20514;-75
2024/01/05 11:26:32;;;;;;;9.60;3.60;;;;;;;18.62;58.22;99019.25;4879904;29;21407;-76